Time;durP1;ratioP1;P1;durP2;ratioP2;P2;SDS_P1;SDS_P2;PMS_P1;PMS_P2;Temp;Humidity;BMP_temperature;BMP_pressure;BME280_temperature;BME280_humidity;BME280_pressure;Samples;Min_cycle;Max_cycle;Signal;HPM_P1;HPM_P2
2022/09/18 00:01:32;;;;;;;2.97;1.40;;;20.80;59.40;;;;;;5022845;28;43406;-57
2022/09/18 00:04:02;;;;;;;2.83;1.10;;;20.80;59.60;;;;;;5022700;28;43434;-57
2022/09/18 00:06:37;;;;;;;2.83;1.38;;;20.80;59.40;;;;;;5021658;28;44720;-57
2022/09/18 00:09:08;;;;;;;1.50;1.20;;;20.70;59.30;;;;;;5023095;28;44061;-57
2022/09/18 00:11:39;;;;;;;1.50;0.88;;;20.70;59.50;;;;;;5022838;28;43451;-57
2022/09/18 00:14:08;;;;;;;1.52;0.80;;;20.70;59.40;;;;;;5022586;28;43510;-57
2022/09/18 00:16:37;;;;;;;3.10;1.08;;;20.70;59.60;;;;;;5022073;28;44663;-57
2022/09/18 00:19:05;;;;;;;2.40;1.10;;;20.70;59.40;;;;;;5023153;28;43446;-57
2022/09/18 00:21:34;;;;;;;2.33;0.98;;;20.70;59.40;;;;;;5022028;28;43420;-57
2022/09/18 00:24:03;;;;;;;2.00;0.90;;;20.70;59.50;;;;;;5023498;28;43459;-57
2022/09/18 00:26:32;;;;;;;2.30;1.00;;;20.70;59.40;;;;;;5022043;28;44988;-57
2022/09/18 00:29:00;;;;;;;2.50;1.00;;;20.60;59.40;;;;;;5021770;28;43776;-57
2022/09/18 00:31:29;;;;;;;1.30;0.80;;;20.60;59.50;;;;;;5021561;28;43392;-57
2022/09/18 00:33:59;;;;;;;1.73;0.93;;;20.60;59.50;;;;;;5022631;28;43456;-57
2022/09/18 00:36:28;;;;;;;2.08;1.00;;;20.60;59.50;;;;;;5022411;28;45027;-57
2022/09/18 00:38:58;;;;;;;1.48;0.95;;;20.60;59.50;;;;;;5053236;28;43490;-57
2022/09/18 00:41:30;;;;;;;1.67;0.80;;;20.60;59.70;;;;;;5020865;28;43596;-57
2022/09/18 00:44:15;;;;;;;;;;;20.60;59.70;;;;;;5023500;28;43407;-57
2022/09/18 00:46:44;;;;;;;1.80;0.90;;;20.60;59.40;;;;;;5008515;28;44949;-57
2022/09/18 00:49:19;;;;;;;1.30;0.93;;;20.60;59.50;;;;;;5022118;28;43986;-57
2022/09/18 00:51:51;;;;;;;1.77;1.00;;;20.60;59.60;;;;;;5022268;28;43498;-57
2022/09/18 00:54:19;;;;;;;2.70;1.00;;;20.50;59.50;;;;;;5022573;28;43473;-57
2022/09/18 00:56:49;;;;;;;1.73;1.10;;;20.60;59.60;;;;;;5020512;28;44843;-57
2022/09/18 00:59:30;;;;;;;2.38;1.05;;;20.60;59.50;;;;;;5021878;28;43458;-57
2022/09/18 01:01:59;;;;;;;1.00;0.90;;;20.60;59.60;;;;;;5021919;28;43397;-57
2022/09/18 01:04:28;;;;;;;2.20;1.00;;;20.60;59.80;;;;;;5022318;28;44016;-57
2022/09/18 01:07:28;;;;;;;1.80;1.00;;;20.50;59.60;;;;;;5019910;28;44811;-57
2022/09/18 01:10:16;;;;;;;2.30;0.90;;;20.50;59.50;;;;;;5021990;28;43428;-57
2022/09/18 01:12:59;;;;;;;1.08;0.90;;;20.50;59.60;;;;;;5017558;28;43451;-57
2022/09/18 01:15:33;;;;;;;1.88;1.02;;;20.50;59.70;;;;;;5017804;28;43438;-57
2022/09/18 01:18:30;;;;;;;1.50;0.82;;;20.50;59.70;;;;;;5020203;28;43972;-57
2022/09/18 01:21:15;;;;;;;2.03;0.70;;;20.50;59.90;;;;;;5017672;28;43522;-57
2022/09/18 01:24:03;;;;;;;1.40;0.90;;;20.50;59.80;;;;;;5020992;28;43440;-57
2022/09/18 01:26:49;;;;;;;1.85;1.02;;;20.40;60.00;;;;;;5019917;28;43392;-57
2022/09/18 01:29:32;;;;;;;2.58;0.90;;;20.40;60.00;;;;;;5018011;28;43795;-57
2022/09/18 01:32:19;;;;;;;2.40;0.90;;;20.50;60.00;;;;;;5008544;28;43349;-57
2022/09/18 01:34:53;;;;;;;0.70;0.60;;;20.50;59.90;;;;;;5020286;28;43400;-58
2022/09/18 01:37:42;;;;;;;2.28;1.00;;;20.40;59.80;;;;;;5020889;28;43454;-57
2022/09/18 01:40:33;;;;;;;1.90;1.02;;;20.40;59.90;;;;;;5021986;28;44697;-57
2022/09/18 01:43:05;;;;;;;2.65;1.17;;;20.40;59.90;;;;;;5039821;28;44126;-57
2022/09/18 01:45:36;;;;;;;1.70;0.80;;;20.40;59.80;;;;;;5005982;28;43498;-57
2022/09/18 01:48:07;;;;;;;1.23;0.80;;;20.40;59.90;;;;;;5020990;28;43513;-57
2022/09/18 01:50:44;;;;;;;1.55;0.90;;;20.40;59.80;;;;;;5053464;28;43799;-57
2022/09/18 01:53:44;;;;;;;1.63;0.80;;;20.30;59.80;;;;;;5019514;28;44002;-57
2022/09/18 01:56:46;;;;;;;2.35;1.10;;;20.30;59.80;;;;;;5020301;28;43423;-57
2022/09/18 01:59:31;;;;;;;1.50;0.63;;;20.30;59.90;;;;;;5030824;28;43626;-57
2022/09/18 02:02:14;;;;;;;1.17;0.75;;;20.30;60.00;;;;;;5020264;28;45120;-57
2022/09/18 02:04:44;;;;;;;1.35;0.90;;;20.30;59.90;;;;;;5020104;28;44294;-57
2022/09/18 02:07:26;;;;;;;1.67;0.90;;;20.30;60.00;;;;;;5021717;28;43493;-57
2022/09/18 02:09:54;;;;;;;1.63;0.80;;;20.30;60.00;;;;;;5020661;28;43570;-57
2022/09/18 02:12:25;;;;;;;1.20;0.70;;;20.30;60.00;;;;;;5018542;28;45070;-57
2022/09/18 02:15:03;;;;;;;1.52;1.00;;;20.20;60.00;;;;;;5003879;28;43715;-57
2022/09/18 02:17:59;;;;;;;2.15;0.82;;;20.20;60.00;;;;;;5021504;28;43432;-57
2022/09/18 02:20:36;;;;;;;1.38;0.82;;;20.30;60.00;;;;;;5050337;28;43502;-57
2022/09/18 02:23:06;;;;;;;2.13;0.80;;;20.20;60.00;;;;;;5053458;28;43808;-57
2022/09/18 02:25:44;;;;;;;1.63;0.90;;;20.30;60.20;;;;;;5020887;28;44021;-57
2022/09/18 02:28:16;;;;;;;2.80;1.08;;;20.30;60.10;;;;;;5022817;28;43419;-57
2022/09/18 02:30:44;;;;;;;2.25;0.85;;;20.30;60.10;;;;;;5020187;28;43688;-57
2022/09/18 02:33:29;;;;;;;1.83;0.75;;;20.20;60.00;;;;;;5012688;28;44865;-57
2022/09/18 02:36:13;;;;;;;1.85;1.05;;;20.20;60.00;;;;;;5023605;28;43658;-57
2022/09/18 02:38:50;;;;;;;1.42;0.88;;;20.20;60.00;;;;;;5009918;28;43403;-57
2022/09/18 02:41:40;;;;;;;3.33;1.10;;;20.20;60.10;;;;;;5023856;28;43539;-57
2022/09/18 02:44:31;;;;;;;1.08;0.60;;;20.20;60.00;;;;;;5021351;28;43800;-57
2022/09/18 02:47:08;;;;;;;;;;;20.20;60.10;;;;;;5020234;28;43474;-57
2022/09/18 02:50:01;;;;;;;1.33;0.85;;;20.20;60.10;;;;;;5016731;28;43461;-57
2022/09/18 02:52:44;;;;;;;2.15;1.00;;;20.20;60.30;;;;;;5008457;28;43510;-57
2022/09/18 02:55:17;;;;;;;;;;;20.20;60.30;;;;;;5022756;28;44729;-57
2022/09/18 02:58:11;;;;;;;1.70;0.93;;;20.20;60.20;;;;;;5022036;28;43454;-58
2022/09/18 03:00:42;;;;;;;2.22;1.00;;;20.10;60.20;;;;;;5021422;28;43517;-57
2022/09/18 03:03:18;;;;;;;0.70;0.68;;;20.20;60.30;;;;;;5021850;28;43413;-57
2022/09/18 03:05:52;;;;;;;1.63;0.70;;;20.10;60.20;;;;;;5023095;28;44978;-57
2022/09/18 03:08:20;;;;;;;2.60;0.90;;;20.20;60.30;;;;;;5055698;28;44031;-57
2022/09/18 03:10:48;;;;;;;1.60;0.80;;;20.20;60.40;;;;;;5019454;28;43499;-57
2022/09/18 03:13:15;;;;;;;1.33;0.80;;;20.10;60.20;;;;;;5017464;28;43485;-57
2022/09/18 03:15:43;;;;;;;2.53;0.93;;;20.10;60.20;;;;;;5022969;28;44673;-57
2022/09/18 03:18:11;;;;;;;2.58;0.77;;;20.10;60.10;;;;;;5022770;28;43693;-56
2022/09/18 03:20:41;;;;;;;2.50;1.13;;;20.10;60.20;;;;;;5022296;28;43439;-57
2022/09/18 03:23:09;;;;;;;0.85;0.70;;;20.10;60.20;;;;;;5055811;28;43463;-57
2022/09/18 03:25:37;;;;;;;1.08;0.80;;;20.10;60.20;;;;;;5055657;28;44147;-57
2022/09/18 03:28:05;;;;;;;1.75;0.80;;;20.10;60.20;;;;;;5023149;28;43507;-57
2022/09/18 03:30:39;;;;;;;1.00;0.70;;;20.10;60.20;;;;;;5021556;28;43420;-57
2022/09/18 03:33:07;;;;;;;2.90;0.98;;;20.10;60.20;;;;;;5056196;28;43549;-57
2022/09/18 03:35:34;;;;;;;2.05;1.08;;;20.10;60.30;;;;;;5021848;28;45147;-57
2022/09/18 03:38:02;;;;;;;2.38;1.08;;;20.10;60.90;;;;;;5020806;28;43375;-57
2022/09/18 03:40:30;;;;;;;1.95;0.95;;;20.10;60.30;;;;;;5055500;28;43362;-57
2022/09/18 03:43:02;;;;;;;2.67;0.88;;;20.10;60.30;;;;;;5007253;28;43452;-57
2022/09/18 03:45:30;;;;;;;2.45;1.00;;;20.10;60.30;;;;;;5037886;28;44936;-57
2022/09/18 03:47:59;;;;;;;2.05;1.10;;;20.10;60.30;;;;;;5019342;28;43472;-57
2022/09/18 03:50:26;;;;;;;1.73;0.93;;;20.10;60.40;;;;;;5048511;28;43419;-57
2022/09/18 03:52:54;;;;;;;1.10;0.77;;;20.10;60.50;;;;;;5022006;28;43399;-57
2022/09/18 03:55:36;;;;;;;1.55;0.80;;;20.00;60.40;;;;;;5021405;28;44937;-57
2022/09/18 03:58:23;;;;;;;1.38;0.80;;;20.00;60.40;;;;;;5022352;28;43447;-57
2022/09/18 04:01:06;;;;;;;2.05;1.00;;;20.10;60.50;;;;;;5023497;28;43443;-57
2022/09/18 04:03:52;;;;;;;1.42;0.88;;;20.00;60.40;;;;;;5022008;28;43561;-57
2022/09/18 04:06:42;;;;;;;1.30;0.80;;;20.00;60.40;;;;;;5021526;28;45124;-57
2022/09/18 04:09:30;;;;;;;1.08;0.80;;;20.00;60.40;;;;;;5023207;28;43518;-57
2022/09/18 04:11:58;;;;;;;0.80;0.73;;;20.00;60.50;;;;;;5018256;28;43402;-57
2022/09/18 04:14:26;;;;;;;1.65;0.80;;;20.00;60.50;;;;;;5051309;28;43410;-57
2022/09/18 04:16:57;;;;;;;2.58;1.25;;;20.00;60.40;;;;;;5033849;28;44989;-57
2022/09/18 04:19:25;;;;;;;1.25;0.85;;;20.00;60.40;;;;;;5017506;28;43789;-57
2022/09/18 04:21:52;;;;;;;1.25;0.68;;;20.00;60.40;;;;;;5048114;28;43408;-57
2022/09/18 04:24:21;;;;;;;2.38;1.00;;;20.00;60.30;;;;;;5018324;28;44302;-57
2022/09/18 04:26:48;;;;;;;1.83;1.10;;;20.00;60.50;;;;;;5006772;28;44928;-57
2022/09/18 04:29:19;;;;;;;1.15;0.95;;;20.00;60.50;;;;;;5054819;28;44146;-57
2022/09/18 04:31:49;;;;;;;1.10;0.73;;;20.00;60.60;;;;;;5018623;28;43448;-57
2022/09/18 04:34:19;;;;;;;3.70;1.02;;;20.00;60.50;;;;;;5018739;28;43506;-57
2022/09/18 04:36:47;;;;;;;2.50;0.88;;;20.00;60.50;;;;;;5054574;28;43776;-56
2022/09/18 04:39:14;;;;;;;0.93;0.70;;;20.00;60.60;;;;;;5018394;28;43935;-57
2022/09/18 04:41:44;;;;;;;1.42;0.90;;;20.00;60.60;;;;;;5009039;28;43374;-57
2022/09/18 04:44:13;;;;;;;1.10;0.93;;;20.00;60.50;;;;;;5006167;28;43403;-57
2022/09/18 04:46:42;;;;;;;1.00;0.70;;;20.00;60.60;;;;;;5021284;28;44668;-57
2022/09/18 04:49:10;;;;;;;1.58;0.90;;;20.00;60.60;;;;;;5017255;28;43482;-57
2022/09/18 04:51:37;;;;;;;1.33;0.68;;;20.00;60.50;;;;;;5016078;28;43439;-57
2022/09/18 04:54:05;;;;;;;2.15;0.90;;;19.90;60.50;;;;;;5021655;28;43928;-57
2022/09/18 04:56:36;;;;;;;1.17;0.95;;;20.00;60.50;;;;;;5020464;28;43864;-57
2022/09/18 04:59:03;;;;;;;1.45;0.68;;;19.90;60.50;;;;;;5054123;28;43378;-57
2022/09/18 05:01:33;;;;;;;1.48;0.85;;;19.90;60.60;;;;;;5016555;28;44010;-57
2022/09/18 05:04:07;;;;;;;1.13;0.80;;;19.90;60.60;;;;;;5019258;28;43766;-57
2022/09/18 05:06:52;;;;;;;1.80;0.77;;;19.90;60.60;;;;;;5020351;28;44721;-57
2022/09/18 05:09:19;;;;;;;0.63;0.63;;;19.90;60.50;;;;;;5021478;28;43467;-57
2022/09/18 05:11:47;;;;;;;1.42;0.90;;;19.90;60.50;;;;;;5022025;28;43546;-57
2022/09/18 05:14:16;;;;;;;1.75;0.90;;;19.90;60.50;;;;;;5021977;28;43748;-57
2022/09/18 05:16:47;;;;;;;1.52;0.93;;;19.90;60.40;;;;;;5016844;28;44217;-57
2022/09/18 05:19:40;;;;;;;1.58;0.90;;;19.90;60.50;;;;;;5021333;28;43517;-57
2022/09/18 05:22:17;;;;;;;1.13;0.60;;;19.90;60.50;;;;;;5020425;28;43415;-57
2022/09/18 05:24:47;;;;;;;2.55;1.25;;;19.90;60.50;;;;;;5022483;28;43439;-57
2022/09/18 05:27:15;;;;;;;1.67;0.77;;;19.90;60.30;;;;;;5022077;28;44692;-57
2022/09/18 05:29:43;;;;;;;0.82;0.60;;;19.90;60.40;;;;;;5029977;28;44013;-57
2022/09/18 05:32:19;;;;;;;1.27;0.60;;;19.90;60.40;;;;;;5021128;28;43415;-57
2022/09/18 05:34:48;;;;;;;1.27;0.93;;;19.90;60.40;;;;;;5020661;28;43375;-57
2022/09/18 05:37:17;;;;;;;1.40;0.80;;;19.90;60.40;;;;;;5020003;28;46231;-57
2022/09/18 05:39:49;;;;;;;1.90;0.93;;;19.90;60.40;;;;;;5019726;28;44155;-57
2022/09/18 05:42:17;;;;;;;1.20;0.73;;;19.90;60.40;;;;;;5020321;28;43507;-57
2022/09/18 05:44:44;;;;;;;1.70;1.10;;;19.90;60.50;;;;;;5019357;28;43588;-57
2022/09/18 05:47:17;;;;;;;1.30;0.63;;;19.90;60.50;;;;;;5019804;28;44705;-57
2022/09/18 05:49:44;;;;;;;1.50;0.93;;;19.90;60.50;;;;;;5020228;28;43420;-57
2022/09/18 05:52:12;;;;;;;1.38;1.00;;;19.90;60.60;;;;;;5020032;28;43479;-57
2022/09/18 05:54:40;;;;;;;1.65;0.90;;;19.90;60.50;;;;;;5019958;28;43578;-57
2022/09/18 05:57:08;;;;;;;1.70;0.90;;;19.90;60.50;;;;;;5035542;28;44697;-57
2022/09/18 05:59:36;;;;;;;1.08;0.70;;;19.90;60.50;;;;;;5019486;28;43502;-57
2022/09/18 06:02:04;;;;;;;1.67;1.00;;;19.90;60.50;;;;;;5022381;28;43460;-57
2022/09/18 06:05:02;;;;;;;1.33;0.77;;;19.90;60.50;;;;;;5022849;28;43415;-57
2022/09/18 06:07:30;;;;;;;2.45;1.00;;;19.80;60.50;;;;;;5023223;28;44656;-57
2022/09/18 06:09:58;;;;;;;2.00;0.90;;;19.90;60.50;;;;;;5024381;28;43486;-57
2022/09/18 06:12:26;;;;;;;1.98;0.95;;;19.90;60.50;;;;;;5026654;28;43448;-57
2022/09/18 06:14:54;;;;;;;1.60;0.80;;;19.80;60.50;;;;;;5024770;28;43501;-57
2022/09/18 06:17:23;;;;;;;1.02;0.85;;;19.90;60.50;;;;;;5020193;28;44947;-57
2022/09/18 06:19:54;;;;;;;1.73;0.90;;;19.90;60.50;;;;;;5023263;28;43961;-57
2022/09/18 06:22:23;;;;;;;1.52;0.88;;;19.80;60.50;;;;;;5023481;28;43424;-57
2022/09/18 06:24:51;;;;;;;2.03;0.93;;;19.80;60.50;;;;;;5019755;28;43427;-57
2022/09/18 06:27:26;;;;;;;2.40;1.10;;;19.80;60.50;;;;;;5018634;28;45008;-57
2022/09/18 06:29:54;;;;;;;2.25;1.00;;;19.80;60.60;;;;;;5023662;28;43989;-57
2022/09/18 06:32:29;;;;;;;1.50;0.73;;;19.80;60.70;;;;;;5022541;28;43487;-57
2022/09/18 06:34:56;;;;;;;1.52;1.00;;;19.80;60.70;;;;;;5024807;28;43612;-57
2022/09/18 06:37:25;;;;;;;1.35;0.88;;;19.80;60.60;;;;;;5037970;28;45035;-57
2022/09/18 06:40:09;;;;;;;1.48;0.80;;;19.80;60.70;;;;;;5022583;28;43786;-57
2022/09/18 06:43:00;;;;;;;2.42;1.02;;;19.80;60.70;;;;;;5021887;28;43441;-57
2022/09/18 06:45:50;;;;;;;1.02;0.88;;;19.80;60.70;;;;;;5022807;28;43459;-57
2022/09/18 06:48:22;;;;;;;1.63;0.90;;;19.80;60.60;;;;;;5021768;28;44284;-57
2022/09/18 06:50:55;;;;;;;2.05;0.93;;;19.80;60.60;;;;;;5022762;28;43946;-57
2022/09/18 06:53:25;;;;;;;1.35;0.70;;;19.80;60.60;;;;;;5021795;28;43530;-57
2022/09/18 06:55:59;;;;;;;1.80;0.95;;;19.80;60.60;;;;;;5026645;28;43450;-57
2022/09/18 06:58:26;;;;;;;1.88;0.90;;;19.80;60.60;;;;;;5023349;28;44934;-57
2022/09/18 07:00:59;;;;;;;1.73;0.90;;;19.80;60.60;;;;;;5022354;28;44005;-57
2022/09/18 07:03:32;;;;;;;1.27;0.85;;;19.80;60.60;;;;;;5022515;28;43724;-57
2022/09/18 07:06:23;;;;;;;0.82;0.70;;;19.70;60.60;;;;;;5014921;28;43598;-57
2022/09/18 07:08:51;;;;;;;2.00;0.90;;;19.70;60.60;;;;;;5021691;28;44959;-57
2022/09/18 07:11:32;;;;;;;1.60;0.93;;;19.70;60.70;;;;;;5024190;28;43811;-57
2022/09/18 07:14:00;;;;;;;1.33;0.77;;;19.70;60.70;;;;;;5019058;28;43505;-56
2022/09/18 07:16:27;;;;;;;1.10;0.77;;;19.70;60.90;;;;;;5013226;28;43466;-57
2022/09/18 07:18:55;;;;;;;1.92;1.08;;;19.70;61.60;;;;;;5022051;28;44751;-56
2022/09/18 07:21:23;;;;;;;0.85;0.57;;;19.70;60.80;;;;;;5016654;28;43402;-57
2022/09/18 07:23:51;;;;;;;1.10;0.90;;;19.70;60.90;;;;;;5019778;28;43424;-57
2022/09/18 07:26:20;;;;;;;2.53;0.90;;;19.70;60.90;;;;;;5022014;28;43515;-57
2022/09/18 07:28:48;;;;;;;1.85;0.80;;;19.70;60.90;;;;;;5021243;28;45023;-57
2022/09/18 07:31:19;;;;;;;1.33;1.17;;;19.70;60.90;;;;;;5021715;28;43544;-57
2022/09/18 07:33:53;;;;;;;1.75;0.90;;;19.70;60.90;;;;;;5020317;28;43449;-57
2022/09/18 07:36:25;;;;;;;0.98;0.80;;;19.70;61.00;;;;;;5021078;28;43534;-57
2022/09/18 07:38:53;;;;;;;1.40;1.13;;;19.70;60.90;;;;;;5021835;28;45153;-57
2022/09/18 07:41:24;;;;;;;1.23;0.80;;;19.70;61.10;;;;;;5020974;28;43583;-57
2022/09/18 07:43:52;;;;;;;1.35;0.85;;;19.70;61.00;;;;;;5020964;28;43514;-57
2022/09/18 07:46:19;;;;;;;1.05;0.73;;;19.70;61.00;;;;;;5021853;28;43630;-57
2022/09/18 07:48:50;;;;;;;0.60;0.60;;;19.70;61.10;;;;;;5021693;28;44068;-57
2022/09/18 07:51:23;;;;;;;1.10;0.85;;;19.70;61.10;;;;;;5021403;28;43988;-57
2022/09/18 07:53:54;;;;;;;1.35;0.95;;;19.70;61.10;;;;;;5022385;28;43439;-57
2022/09/18 07:56:43;;;;;;;1.85;1.45;;;19.70;61.20;;;;;;5020050;28;43553;-57
2022/09/18 07:59:16;;;;;;;1.83;1.42;;;19.70;61.20;;;;;;5017604;28;44679;-57
2022/09/18 08:01:44;;;;;;;5.35;2.40;;;19.70;61.60;;;;;;5021744;28;43447;-58
2022/09/18 08:04:13;;;;;;;2.78;1.63;;;19.70;61.40;;;;;;5022680;28;43443;-58
2022/09/18 08:07:02;;;;;;;3.33;1.33;;;19.80;61.40;;;;;;5021922;28;43521;-58
2022/09/18 08:09:49;;;;;;;2.28;1.65;;;19.90;61.20;;;;;;5023112;28;43812;-58
2022/09/18 08:12:42;;;;;;;3.92;1.92;;;20.00;60.90;;;;;;5020452;28;43863;-58
2022/09/18 08:15:40;;;;;;;2.15;1.20;;;20.20;60.80;;;;;;5024779;28;43444;-57
2022/09/18 08:18:43;;;;;;;2.47;1.33;;;20.30;60.50;;;;;;5019366;28;43629;-58
2022/09/18 08:21:40;;;;;;;3.28;1.75;;;20.40;60.50;;;;;;5018207;28;44684;-58
2022/09/18 08:24:10;;;;;;;0.97;0.90;;;20.50;60.40;;;;;;5020631;28;43749;-58
2022/09/18 08:26:38;;;;;;;1.83;1.17;;;20.60;60.30;;;;;;5018843;28;43448;-58
2022/09/18 08:29:06;;;;;;;2.63;1.30;;;20.70;60.10;;;;;;5014108;28;43458;-58
2022/09/18 08:31:35;;;;;;;2.60;1.20;;;20.90;60.00;;;;;;5020166;28;44795;-58
2022/09/18 08:34:06;;;;;;;4.05;1.42;;;20.90;59.80;;;;;;5021236;28;43403;-59
2022/09/18 08:36:34;;;;;;;5.22;1.35;;;21.10;59.80;;;;;;5017783;28;43456;-58
2022/09/18 08:39:09;;;;;;;2.90;1.10;;;21.20;59.60;;;;;;5021119;28;43453;-59
2022/09/18 08:41:42;;;;;;;3.78;1.38;;;21.40;59.30;;;;;;5020340;28;43967;-59
2022/09/18 08:44:23;;;;;;;3.33;1.42;;;21.50;59.10;;;;;;5004901;28;43973;-59
2022/09/18 08:47:15;;;;;;;3.53;1.30;;;21.70;58.90;;;;;;5020455;28;43425;-59
2022/09/18 08:50:03;;;;;;;2.88;1.48;;;21.80;58.80;;;;;;5022828;28;43440;-59
2022/09/18 08:52:33;;;;;;;1.92;1.30;;;21.90;58.50;;;;;;5031775;28;44925;-59
2022/09/18 08:55:29;;;;;;;2.40;1.30;;;21.90;58.50;;;;;;5020307;28;44014;-57
2022/09/18 08:58:06;;;;;;;3.42;1.33;;;22.00;58.10;;;;;;5021990;28;43419;-59
2022/09/18 09:00:43;;;;;;;4.07;1.23;;;22.10;58.20;;;;;;5015083;28;44153;-59
2022/09/18 09:03:39;;;;;;;4.55;1.23;;;22.20;58.10;;;;;;5021591;28;44979;-59
2022/09/18 09:06:25;;;;;;;2.60;1.17;;;22.30;57.90;;;;;;5007636;28;43451;-59
2022/09/18 09:09:49;;;;;;;4.20;1.20;;;22.40;57.70;;;;;;5020361;28;43448;-59
2022/09/18 09:12:31;;;;;;;4.40;1.50;;;22.50;57.40;;;;;;4986739;28;43509;-60
2022/09/18 09:15:24;;;;;;;3.85;1.05;;;22.60;57.30;;;;;;5019807;28;44069;-58
2022/09/18 09:18:04;;;;;;;3.60;1.40;;;22.70;57.10;;;;;;5044615;28;44199;-59
2022/09/18 09:20:40;;;;;;;5.22;1.20;;;22.70;57.20;;;;;;5021670;28;43563;-59
2022/09/18 09:23:37;;;;;;;11.00;1.95;;;22.70;57.60;;;;;;5020262;28;43547;-59
2022/09/18 09:26:18;;;;;;;4.95;1.30;;;22.80;57.70;;;;;;5028339;28;44657;-59
2022/09/18 09:29:19;;;;;;;3.17;1.20;;;22.80;57.70;;;;;;5020308;28;43712;-59
2022/09/18 09:32:17;;;;;;;2.40;1.17;;;22.90;57.60;;;;;;5022037;28;43484;-61
2022/09/18 09:35:15;;;;;;;2.55;1.25;;;23.00;57.60;;;;;;5021938;28;43596;-59
2022/09/18 09:38:05;;;;;;;3.60;1.10;;;23.10;57.20;;;;;;5017532;28;43951;-58
2022/09/18 09:40:42;;;;;;;2.60;1.13;;;23.10;56.90;;;;;;5023837;28;43444;-58
2022/09/18 09:43:16;;;;;;;2.95;1.10;;;23.20;56.90;;;;;;5023282;28;43523;-58
2022/09/18 09:45:45;;;;;;;3.70;1.40;;;23.20;56.70;;;;;;5024164;28;43475;-58
2022/09/18 09:48:37;;;;;;;2.28;1.00;;;23.20;56.50;;;;;;5023881;28;43786;-58
2022/09/18 09:51:21;;;;;;;2.47;1.02;;;23.20;56.30;;;;;;5023704;28;43727;-58
2022/09/18 09:53:52;;;;;;;2.83;1.10;;;23.20;56.30;;;;;;5024065;28;43519;-58
2022/09/18 09:56:47;;;;;;;4.53;1.25;;;23.20;56.40;;;;;;5022490;28;43599;-58
2022/09/18 09:59:44;;;;;;;9.68;1.20;;;23.20;56.40;;;;;;5016016;28;43820;-59
2022/09/18 10:02:32;;;;;;;2.85;1.02;;;23.10;56.30;;;;;;5025020;28;43446;-59
2022/09/18 10:05:09;;;;;;;8.88;1.40;;;23.10;56.50;;;;;;5022803;28;43556;-59
2022/09/18 10:08:07;;;;;;;7.05;1.17;;;23.00;56.50;;;;;;5023688;28;43462;-58
2022/09/18 10:10:56;;;;;;;6.53;1.77;;;23.00;56.60;;;;;;5047816;28;43705;-58
2022/09/18 10:13:40;;;;;;;7.40;1.45;;;22.90;56.70;;;;;;5037908;28;44252;-58
2022/09/18 10:16:26;;;;;;;5.13;1.50;;;22.90;57.40;;;;;;5022038;28;43434;-58
2022/09/18 10:18:56;;;;;;;5.28;1.23;;;22.80;56.70;;;;;;5023448;28;43447;-58
2022/09/18 10:21:27;;;;;;;4.55;1.60;;;22.80;56.70;;;;;;5022649;28;43800;-58
2022/09/18 10:23:58;;;;;;;5.07;1.95;;;22.80;56.80;;;;;;5023791;28;43399;-58
2022/09/18 10:27:05;;;;;;;3.05;1.40;;;22.80;56.90;;;;;;5022954;28;43506;-58
2022/09/18 10:29:33;;;;;;;5.03;1.40;;;22.70;56.80;;;;;;5039388;28;43995;-58
2022/09/18 10:32:05;;;;;;;3.10;1.25;;;22.70;57.00;;;;;;5054217;28;45161;-59
2022/09/18 10:34:44;;;;;;;3.10;1.40;;;22.60;56.90;;;;;;5021854;28;43685;-59
2022/09/18 10:37:39;;;;;;;6.28;2.10;;;22.60;57.00;;;;;;5025054;28;43488;-58
2022/09/18 10:40:38;;;;;;;3.33;1.67;;;22.60;57.10;;;;;;5036693;28;43457;-59
2022/09/18 10:43:17;;;;;;;3.85;1.38;;;22.60;57.10;;;;;;5024504;28;43806;-58
2022/09/18 10:45:55;;;;;;;4.30;1.35;;;22.50;57.10;;;;;;5021904;28;43544;-59
2022/09/18 10:48:35;;;;;;;4.13;1.60;;;22.50;57.20;;;;;;5023928;28;43551;-58
2022/09/18 10:51:03;;;;;;;3.08;1.48;;;22.50;57.40;;;;;;5020944;28;43450;-58
2022/09/18 10:53:37;;;;;;;2.72;1.33;;;22.40;57.40;;;;;;5022107;28;44112;-58
2022/09/18 10:56:20;;;;;;;2.95;1.38;;;22.40;57.30;;;;;;5055493;28;43351;-58
2022/09/18 10:58:50;;;;;;;4.65;1.40;;;22.40;57.40;;;;;;5022584;28;43501;-58
2022/09/18 11:01:18;;;;;;;4.28;1.35;;;22.30;57.40;;;;;;5023641;28;43561;-58
2022/09/18 11:04:00;;;;;;;4.18;1.50;;;22.30;57.40;;;;;;5022410;28;44900;-58
2022/09/18 11:06:33;;;;;;;4.43;1.60;;;22.30;57.40;;;;;;5022389;28;43528;-58
2022/09/18 11:09:15;;;;;;;3.33;1.50;;;22.20;57.50;;;;;;5023172;28;43518;-58
2022/09/18 11:11:49;;;;;;;4.30;1.67;;;22.20;57.70;;;;;;5025232;28;43554;-58
2022/09/18 11:14:28;;;;;;;2.65;1.40;;;22.10;57.90;;;;;;5055596;28;44740;-58
2022/09/18 11:17:03;;;;;;;4.20;1.30;;;22.10;58.20;;;;;;5022676;28;43472;-58
2022/09/18 11:19:37;;;;;;;2.90;1.42;;;22.10;58.10;;;;;;5022490;28;43469;-58
2022/09/18 11:22:41;;;;;;;3.78;1.45;;;22.10;58.10;;;;;;5021929;28;43416;-58
2022/09/18 11:25:23;;;;;;;4.00;1.52;;;22.10;58.00;;;;;;5022484;28;43815;-58
2022/09/18 11:27:56;;;;;;;3.13;1.63;;;22.00;58.20;;;;;;5022013;28;43963;-58
2022/09/18 11:30:28;;;;;;;4.63;1.45;;;22.00;58.10;;;;;;5022076;28;43407;-58
2022/09/18 11:33:13;;;;;;;2.40;1.38;;;22.00;58.20;;;;;;5022290;28;43597;-58
2022/09/18 11:35:47;;;;;;;3.47;1.42;;;22.00;58.20;;;;;;5010603;28;43931;-58
2022/09/18 11:38:18;;;;;;;3.67;1.60;;;21.90;58.00;;;;;;5022223;28;43430;-58
2022/09/18 11:40:53;;;;;;;3.22;1.38;;;21.90;58.10;;;;;;5021978;28;43511;-58
2022/09/18 11:43:28;;;;;;;5.13;1.58;;;21.90;58.10;;;;;;5020798;28;43519;-58
2022/09/18 11:46:34;;;;;;;3.63;1.52;;;21.90;58.50;;;;;;5022038;28;43803;-58
2022/09/18 11:49:14;;;;;;;3.50;1.50;;;21.80;58.50;;;;;;5021311;28;43490;-59
2022/09/18 11:51:58;;;;;;;4.28;1.55;;;21.80;58.70;;;;;;5015798;28;43501;-58
2022/09/18 11:54:41;;;;;;;3.47;1.38;;;21.80;58.70;;;;;;5016440;28;43514;-59
2022/09/18 11:57:40;;;;;;;2.33;1.42;;;21.80;58.80;;;;;;5018170;28;43763;-59
2022/09/18 12:00:16;;;;;;;2.75;1.38;;;21.80;59.30;;;;;;5046958;28;43418;-58
2022/09/18 12:03:05;;;;;;;2.83;1.45;;;21.80;58.70;;;;;;5022761;28;43506;-58
2022/09/18 12:05:50;;;;;;;3.42;1.58;;;21.80;58.70;;;;;;5021098;28;43614;-58
2022/09/18 12:08:38;;;;;;;3.60;1.90;;;21.80;58.50;;;;;;5021460;28;43853;-58
2022/09/18 12:11:36;;;;;;;7.60;3.07;;;21.80;58.50;;;;;;5042097;28;43717;-58
2022/09/18 12:14:12;;;;;;;13.55;7.40;;;21.80;58.50;;;;;;5054128;28;43443;-58
2022/09/18 12:17:03;;;;;;;13.32;7.95;;;21.80;58.60;;;;;;5019856;28;43575;-58
2022/09/18 12:19:48;;;;;;;20.10;10.93;;;21.70;58.60;;;;;;5020775;28;43733;-58
2022/09/18 12:22:42;;;;;;;21.48;12.05;;;21.70;58.70;;;;;;5018972;28;43944;-58
2022/09/18 12:25:15;;;;;;;28.65;14.30;;;21.70;58.50;;;;;;5020935;28;43454;-59
2022/09/18 12:28:29;;;;;;;;;;;21.70;58.60;;;;;;5023458;28;43435;-57
2022/09/18 12:31:22;;;;;;;29.25;15.45;;;21.60;58.70;;;;;;5018314;28;45057;-58
2022/09/18 12:34:01;;;;;;;25.85;14.88;;;21.60;58.70;;;;;;5017883;28;43452;-58
2022/09/18 12:36:50;;;;;;;29.23;16.83;;;21.60;58.80;;;;;;5018319;28;43455;-58
2022/09/18 12:39:27;;;;;;;35.83;20.05;;;21.60;58.80;;;;;;5021875;28;43497;-58
2022/09/18 12:42:16;;;;;;;36.08;19.98;;;21.60;58.80;;;;;;5021455;28;43779;-58
2022/09/18 12:44:56;;;;;;;42.00;23.25;;;21.50;58.90;;;;;;5051225;28;43820;-59
2022/09/18 12:47:37;;;;;;;40.88;24.02;;;21.60;59.50;;;;;;5021793;28;43470;-58
2022/09/18 12:50:25;;;;;;;43.63;24.77;;;21.50;59.20;;;;;;5022869;28;43428;-58
2022/09/18 12:53:22;;;;;;;45.03;24.25;;;21.50;59.00;;;;;;5021864;28;44683;-58
2022/09/18 12:56:09;;;;;;;41.05;23.73;;;21.50;59.10;;;;;;5021976;28;43974;-58
2022/09/18 12:58:39;;;;;;;42.28;22.98;;;21.50;59.10;;;;;;5021841;28;43507;-58
2022/09/18 13:01:25;;;;;;;47.97;25.85;;;21.50;59.30;;;;;;5022199;28;43964;-58
2022/09/18 13:04:00;;;;;;;51.85;28.92;;;21.50;59.20;;;;;;5021886;28;44055;-59
2022/09/18 13:06:40;;;;;;;49.55;29.02;;;21.40;59.30;;;;;;5019875;28;43767;-58
2022/09/18 13:09:20;;;;;;;52.35;28.38;;;21.40;59.30;;;;;;5022294;28;43480;-58
2022/09/18 13:12:09;;;;;;;48.63;28.33;;;21.40;59.10;;;;;;5020627;28;43390;-58
2022/09/18 13:14:46;;;;;;;42.83;26.70;;;21.40;59.20;;;;;;5021055;28;43668;-58
2022/09/18 13:17:19;;;;;;;45.15;26.02;;;21.40;59.20;;;;;;5022358;28;43534;-58
2022/09/18 13:20:09;;;;;;;42.40;24.95;;;21.40;59.20;;;;;;5017677;28;43433;-58
2022/09/18 13:22:39;;;;;;;41.72;23.55;;;21.40;59.20;;;;;;5020733;28;43410;-58
2022/09/18 13:25:24;;;;;;;42.13;24.00;;;21.40;59.20;;;;;;5022113;28;43790;-58
2022/09/18 13:27:53;;;;;;;38.33;23.10;;;21.40;59.20;;;;;;5014443;28;43494;-58
2022/09/18 13:30:29;;;;;;;36.10;21.35;;;21.40;59.20;;;;;;5022433;28;43470;-58
2022/09/18 13:32:58;;;;;;;31.67;19.35;;;21.40;59.20;;;;;;5022536;28;43386;-59
2022/09/18 13:35:38;;;;;;;37.55;20.23;;;21.40;59.30;;;;;;5020734;28;44010;-58
2022/09/18 13:38:13;;;;;;;38.95;23.63;;;21.40;59.30;;;;;;5022392;28;43436;-58